Time;durP1;ratioP1;P1;durP2;ratioP2;P2;SDS_P1;SDS_P2;PMS_P1;PMS_P2;Temp;Humidity;BMP_temperature;BMP_pressure;BME280_temperature;BME280_humidity;BME280_pressure;Samples;Min_cycle;Max_cycle;Signal;HPM_P1;HPM_P2
2023/01/04 00:01:25;;;;;;;9.00;3.20;;;;;;;4.69;100.00;102040.25;5052418;28;21025;-69
2023/01/04 00:03:52;;;;;;;7.73;3.37;;;;;;;4.65;100.00;102030.16;5052592;28;20587;-69
2023/01/04 00:06:19;;;;;;;6.27;2.93;;;;;;;4.62;100.00;102027.94;5052485;28;20446;-68
2023/01/04 00:08:45;;;;;;;6.93;2.57;;;;;;;4.61;100.00;102019.09;5053834;28;20480;-68
2023/01/04 00:11:16;;;;;;;6.73;2.67;;;;;;;4.63;99.98;102014.28;5056175;28;20959;-69
2023/01/04 00:13:43;;;;;;;11.43;4.30;;;;;;;4.51;100.00;102006.16;5056151;28;21020;-69
2023/01/04 00:16:13;;;;;;;9.63;3.70;;;;;;;4.49;99.98;101996.72;5056134;28;20473;-68
2023/01/04 00:18:40;;;;;;;8.80;3.73;;;;;;;4.36;100.00;101996.88;5056119;28;20799;-69
2023/01/04 00:21:08;;;;;;;9.60;3.40;;;;;;;4.40;100.00;101992.72;5056223;28;20481;-69
2023/01/04 00:23:35;;;;;;;10.80;4.20;;;;;;;4.36;100.00;101995.03;5056030;28;20462;-69
2023/01/04 00:26:02;;;;;;;11.43;4.83;;;;;;;4.39;100.00;101991.91;5056296;28;20430;-69
2023/01/04 00:28:30;;;;;;;11.00;3.97;;;;;;;4.39;100.00;101978.50;5056134;28;20453;-69
2023/01/04 00:30:56;;;;;;;10.60;3.77;;;;;;;4.39;100.00;101970.44;5056142;28;20441;-69
2023/01/04 00:33:23;;;;;;;12.17;4.17;;;;;;;4.41;100.00;101968.34;5056027;28;20445;-69
2023/01/04 00:35:49;;;;;;;10.30;3.90;;;;;;;4.40;100.00;101947.13;5055730;28;20456;-69
2023/01/04 00:38:16;;;;;;;8.23;3.57;;;;;;;4.44;100.00;101951.81;5055663;28;20445;-68
2023/01/04 00:40:42;;;;;;;8.17;3.83;;;;;;;4.48;100.00;101961.03;5055847;28;20577;-69
2023/01/04 00:43:09;;;;;;;16.93;3.60;;;;;;;4.48;100.00;101957.53;5055938;28;20442;-69
2023/01/04 00:45:37;;;;;;;12.20;3.93;;;;;;;4.52;100.00;101948.00;5055679;28;20517;-69
2023/01/04 00:48:04;;;;;;;8.40;3.80;;;;;;;4.55;100.00;101944.84;5055744;28;20469;-69
2023/01/04 00:50:30;;;;;;;8.73;3.40;;;;;;;4.59;100.00;101931.78;5055523;28;20444;-69
2023/01/04 00:52:57;;;;;;;13.10;3.57;;;;;;;4.63;100.00;101925.75;5055854;28;20442;-69
2023/01/04 00:55:23;;;;;;;6.67;2.90;;;;;;;4.66;100.00;101922.59;5055373;28;20557;-70
2023/01/04 00:57:50;;;;;;;16.63;3.80;;;;;;;4.71;100.00;101917.38;5055470;28;20939;-69
2023/01/04 01:00:17;;;;;;;9.90;3.93;;;;;;;4.80;100.00;101918.69;5055551;28;20581;-70
2023/01/04 01:02:45;;;;;;;8.50;3.43;;;;;;;4.89;100.00;101921.03;5055270;28;20488;-69
2023/01/04 01:05:12;;;;;;;8.70;2.80;;;;;;;5.00;100.00;101920.22;5055110;28;20899;-69
2023/01/04 01:07:38;;;;;;;9.10;3.37;;;;;;;5.10;100.00;101920.50;5055506;28;20448;-69
2023/01/04 01:10:06;;;;;;;6.83;2.67;;;;;;;5.22;100.00;101912.44;5055505;28;20525;-69
2023/01/04 01:12:32;;;;;;;9.70;3.40;;;;;;;5.30;100.00;101912.91;5055416;28;20445;-69
2023/01/04 01:14:59;;;;;;;8.47;3.10;;;;;;;5.36;100.00;101904.97;5055135;28;20561;-70
2023/01/04 01:17:26;;;;;;;8.50;2.83;;;;;;;5.40;100.00;101903.44;5055212;28;20477;-69
2023/01/04 01:19:53;;;;;;;9.60;3.57;;;;;;;5.40;100.00;101901.63;5054755;28;20466;-69
2023/01/04 01:22:20;;;;;;;11.53;3.70;;;;;;;5.42;100.00;101906.75;5054939;28;20530;-70
2023/01/04 01:24:47;;;;;;;9.63;3.03;;;;;;;5.44;100.00;101901.94;5054862;28;20612;-69
2023/01/04 01:27:20;;;;;;;8.57;3.60;;;;;;;5.51;100.00;101914.22;5055863;28;20484;-69
2023/01/04 01:29:46;;;;;;;21.50;3.60;;;;;;;5.50;100.00;101911.78;5055219;28;20462;-70
2023/01/04 01:32:13;;;;;;;9.73;3.50;;;;;;;5.50;100.00;101912.59;5054803;28;20939;-69
2023/01/04 01:34:39;;;;;;;6.90;3.40;;;;;;;5.46;100.00;101911.41;5055025;28;20458;-70
2023/01/04 01:37:07;;;;;;;10.87;4.07;;;;;;;5.48;100.00;101913.84;5055024;28;20446;-70
2023/01/04 01:39:34;;;;;;;8.73;3.00;;;;;;;5.51;100.00;101910.72;5054979;28;20534;-70
2023/01/04 01:42:01;;;;;;;9.47;3.83;;;;;;;5.48;100.00;101914.66;5054532;28;20568;-70
2023/01/04 01:44:59;;;;;;;8.37;3.43;;;;;;;5.49;100.00;101915.47;5054707;28;21006;-69
2023/01/04 01:47:33;;;;;;;7.90;3.17;;;;;;;5.41;99.47;101922.03;5054534;28;20442;-69
2023/01/04 01:50:00;;;;;;;8.50;3.00;;;;;;;5.33;99.06;101911.66;5054493;28;20780;-69
2023/01/04 01:52:33;;;;;;;7.17;2.67;;;;;;;5.22;98.46;101912.44;5054838;28;20450;-70
2023/01/04 01:55:03;;;;;;;10.17;3.87;;;;;;;5.22;98.26;101915.97;5054410;28;20462;-69
2023/01/04 01:57:34;;;;;;;7.40;2.60;;;;;;;5.18;97.92;101908.56;5054772;28;20422;-69
2023/01/04 02:00:05;;;;;;;15.03;3.37;;;;;;;5.16;98.12;101906.13;5054665;28;20473;-70
2023/01/04 02:02:31;;;;;;;10.47;3.30;;;;;;;5.08;97.62;101893.03;5054541;28;20505;-70
2023/01/04 02:04:59;;;;;;;9.40;3.23;;;;;;;5.07;98.56;101886.03;5054197;28;20991;-69
2023/01/04 02:07:27;;;;;;;9.23;3.00;;;;;;;5.08;98.59;101879.63;5054391;28;20513;-69
2023/01/04 02:09:57;;;;;;;6.00;2.37;;;;;;;5.08;98.67;101866.19;5054382;28;20442;-69
2023/01/04 02:12:25;;;;;;;8.10;2.40;;;;;;;4.95;98.14;101859.16;5053675;28;20517;-69
2023/01/04 02:14:51;;;;;;;8.90;3.10;;;;;;;4.92;98.45;101846.22;5053729;28;20927;-69
2023/01/04 02:17:31;;;;;;;8.53;2.80;;;;;;;4.84;98.68;101826.97;5054223;28;20451;-69
2023/01/04 02:20:28;;;;;;;9.33;3.60;;;;;;;4.83;99.36;101810.03;5054425;28;20514;-69
2023/01/04 02:23:36;;;;;;;9.80;2.63;;;;;;;4.86;100.00;101808.75;5054183;28;20454;-68
2023/01/04 02:26:42;;;;;;;8.13;3.60;;;;;;;4.85;100.00;101805.25;5054000;28;20439;-68
2023/01/04 02:29:42;;;;;;;6.60;2.63;;;;;;;4.84;100.00;101792.06;5053605;28;20975;-69
2023/01/04 02:32:17;;;;;;;7.93;2.93;;;;;;;4.86;100.00;101787.28;5047756;28;20534;-68
2023/01/04 02:34:52;;;;;;;9.80;4.13;;;;;;;4.88;100.00;101782.50;5053435;28;20462;-68
2023/01/04 02:37:28;;;;;;;6.93;2.97;;;;;;;4.89;100.00;101768.03;5053875;28;20450;-68
2023/01/04 02:40:03;;;;;;;6.97;2.37;;;;;;;4.93;100.00;101766.50;5053785;28;20462;-68
2023/01/04 02:45:28;;;;;;;8.57;2.90;;;;;;;4.87;100.00;101764.75;5053319;28;20442;-68
2023/01/04 02:50:52;;;;;;;8.73;3.10;;;;;;;5.07;100.00;101771.38;5053433;28;20919;-68
2023/01/04 02:53:22;;;;;;;11.57;2.70;;;;;;;5.09;100.00;101763.13;5053409;28;20501;-68
2023/01/04 02:55:56;;;;;;;7.40;2.87;;;;;;;5.11;100.00;101766.38;5053148;28;20444;-69
2023/01/04 02:58:38;;;;;;;9.30;3.03;;;;;;;5.12;100.00;101769.88;5053451;28;20440;-69
2023/01/04 03:07:05;;;;;;;7.37;3.20;;;;;;;5.22;100.00;101733.31;5053352;28;20411;-69
2023/01/04 03:09:35;;;;;;;9.80;3.00;;;;;;;5.18;99.82;101726.78;5053375;28;20448;-69
2023/01/04 03:14:54;;;;;;;7.70;3.30;;;;;;;5.17;99.89;101727.81;5053037;28;20442;-68
2023/01/04 03:17:24;;;;;;;5.83;2.20;;;;;;;5.13;100.00;101718.59;5053245;28;20434;-69
2023/01/04 03:19:54;;;;;;;7.67;3.10;;;;;;;5.17;100.00;101730.50;5053008;28;20969;-68
2023/01/04 03:36:29;;;;;;;6.37;2.60;;;;;;;5.15;99.24;101686.97;5052885;28;20410;-66
2023/01/04 03:50:21;;;;;;;8.70;2.50;;;;;;;5.07;98.33;101655.13;5056975;28;20464;-71
2023/01/04 03:52:51;;;;;;;8.67;2.47;;;;;;;5.09;98.74;101650.34;5057258;28;20444;-71
2023/01/04 03:55:18;;;;;;;7.80;3.17;;;;;;;5.12;99.13;101638.28;5056708;28;20541;-71
2023/01/04 03:57:46;;;;;;;8.47;3.40;;;;;;;5.10;98.96;101654.66;5056832;28;20482;-71
2023/01/04 04:00:17;;;;;;;7.30;2.73;;;;;;;5.13;99.80;101654.16;5056900;28;20437;-70
2023/01/04 04:02:45;;;;;;;10.40;4.00;;;;;;;5.07;99.73;101637.13;5057325;28;20482;-70
2023/01/04 04:10:46;;;;;;;8.10;3.50;;;;;;;5.06;99.90;101611.34;5056522;28;20414;-70
2023/01/04 04:13:13;;;;;;;7.07;2.57;;;;;;;5.07;99.54;101601.41;5056474;28;20506;-71
2023/01/04 04:15:40;;;;;;;7.47;3.50;;;;;;;5.07;99.58;101604.09;5056609;28;20470;-71
2023/01/04 04:18:07;;;;;;;8.33;3.00;;;;;;;5.07;100.00;101596.84;5056582;28;20866;-72
2023/01/04 04:20:33;;;;;;;8.63;3.33;;;;;;;5.09;100.00;101582.38;5056457;28;20865;-70
2023/01/04 04:23:01;;;;;;;8.37;2.83;;;;;;;5.15;100.00;101582.25;5056491;28;20484;-70
2023/01/04 04:25:28;;;;;;;6.73;2.90;;;;;;;5.16;100.00;101572.31;5055597;28;20486;-70
2023/01/04 04:27:55;;;;;;;8.00;2.80;;;;;;;5.15;100.00;101566.13;5056032;28;20446;-71
2023/01/04 04:30:21;;;;;;;8.57;2.90;;;;;;;5.18;100.00;101556.75;5056557;28;20520;-71
2023/01/04 04:32:48;;;;;;;7.97;2.80;;;;;;;5.12;100.00;101550.47;5056221;28;20438;-70
2023/01/04 04:35:14;;;;;;;7.57;3.00;;;;;;;5.12;100.00;101550.47;5056169;28;20831;-70
2023/01/04 04:37:41;;;;;;;9.30;3.13;;;;;;;5.17;100.00;101541.69;5055986;28;21021;-71
2023/01/04 04:41:37;;;;;;;7.10;2.73;;;;;;;5.17;100.00;101537.16;5055709;28;20868;-70
2023/01/04 04:42:56;;;;;;;9.70;3.70;;;;;;;5.21;100.00;101521.38;5055642;28;20843;-70
2023/01/04 04:45:23;;;;;;;6.10;2.27;;;;;;;5.22;100.00;101523.00;5056174;28;20468;-71
2023/01/04 04:47:49;;;;;;;8.87;3.13;;;;;;;5.24;100.00;101505.59;5055734;28;20240;-70
2023/01/04 04:50:16;;;;;;;7.20;2.90;;;;;;;5.25;100.00;101507.22;5056052;28;20525;-71
2023/01/04 04:52:42;;;;;;;8.03;2.97;;;;;;;5.27;100.00;101510.50;5055680;28;20529;-71
2023/01/04 04:55:10;;;;;;;11.53;3.53;;;;;;;5.27;100.00;101497.06;5054855;28;20907;-71
2023/01/04 04:57:37;;;;;;;10.10;2.73;;;;;;;5.34;100.00;101498.75;5055602;28;20450;-71
2023/01/04 05:00:05;;;;;;;7.60;3.00;;;;;;;5.38;100.00;101481.09;5055769;28;20438;-69
2023/01/04 05:02:31;;;;;;;6.60;2.40;;;;;;;5.32;100.00;101480.22;5055614;28;20473;-71
2023/01/04 05:04:58;;;;;;;7.10;2.60;;;;;;;5.39;100.00;101480.84;5055610;28;20462;-71
2023/01/04 05:07:24;;;;;;;6.97;2.93;;;;;;;5.41;100.00;101483.31;5055642;28;20817;-70
2023/01/04 05:09:51;;;;;;;12.00;3.50;;;;;;;5.45;99.78;101468.34;5055298;28;20934;-70
2023/01/04 05:15:03;;;;;;;6.77;2.40;;;;;;;5.44;99.80;101451.38;5055416;28;20469;-70
2023/01/04 05:17:30;;;;;;;7.00;2.80;;;;;;;5.49;99.80;101453.31;5055454;28;20454;-70
2023/01/04 05:19:57;;;;;;;7.77;2.70;;;;;;;5.53;99.26;101447.25;5055152;28;20448;-71
2023/01/04 05:22:23;;;;;;;7.00;2.97;;;;;;;5.54;99.07;101439.97;5054896;28;20866;-70
2023/01/04 05:24:50;;;;;;;7.57;2.73;;;;;;;5.55;99.03;101426.28;5054968;28;20474;-71
2023/01/04 05:27:16;;;;;;;8.03;3.27;;;;;;;5.55;99.17;101417.41;5055430;28;20873;-70
2023/01/04 05:32:36;;;;;;;6.77;2.40;;;;;;;5.56;98.85;101397.53;5030711;28;20431;-71
2023/01/04 05:35:03;;;;;;;7.37;3.23;;;;;;;5.61;98.88;101392.22;5055396;28;20490;-70
2023/01/04 05:37:30;;;;;;;9.67;3.00;;;;;;;5.61;98.42;101386.06;5054835;28;20526;-70
2023/01/04 05:39:56;;;;;;;6.63;2.50;;;;;;;5.63;98.43;101379.38;5055010;28;20442;-70
2023/01/04 05:42:26;;;;;;;7.67;3.20;;;;;;;5.64;98.93;101375.63;5054569;28;20482;-70
2023/01/04 05:44:56;;;;;;;7.00;2.37;;;;;;;5.66;98.36;101372.69;5054545;28;20826;-71
2023/01/04 05:47:23;;;;;;;6.73;2.90;;;;;;;5.69;98.00;101367.63;5054648;28;20450;-71
2023/01/04 05:49:50;;;;;;;8.20;2.83;;;;;;;5.66;97.94;101362.75;5054576;28;20453;-70
2023/01/04 05:52:17;;;;;;;10.67;2.90;;;;;;;5.72;97.71;101360.94;5054249;28;20446;-70
2023/01/04 05:54:44;;;;;;;7.20;2.60;;;;;;;5.67;97.57;101353.63;5054526;28;20558;-70
2023/01/04 05:57:11;;;;;;;6.17;2.00;;;;;;;5.68;97.73;101354.44;5054568;28;20458;-69
2023/01/04 05:59:38;;;;;;;11.80;3.07;;;;;;;5.61;97.82;101360.00;5054532;28;20446;-70
2023/01/04 06:02:06;;;;;;;14.30;2.97;;;;;;;5.69;97.95;101346.13;5054540;28;20576;-70
2023/01/04 06:04:33;;;;;;;6.50;2.57;;;;;;;5.75;97.99;101338.94;5054696;28;20493;-70
2023/01/04 06:07:00;;;;;;;5.93;2.40;;;;;;;5.74;97.62;101326.56;5054689;28;20874;-71
2023/01/04 06:09:26;;;;;;;7.43;2.60;;;;;;;5.76;97.94;101330.63;5054458;28;20481;-70
2023/01/04 06:11:53;;;;;;;7.90;2.80;;;;;;;5.79;97.71;101335.50;5054481;28;20445;-70
2023/01/04 06:14:19;;;;;;;9.40;2.30;;;;;;;5.87;97.47;101328.06;5054405;28;20549;-71
2023/01/04 06:16:46;;;;;;;6.87;2.50;;;;;;;5.79;97.87;101321.25;5054393;28;20472;-71
2023/01/04 06:19:14;;;;;;;10.93;3.10;;;;;;;5.86;97.97;101313.00;5054507;28;20453;-70
2023/01/04 06:21:41;;;;;;;7.33;2.70;;;;;;;5.89;97.52;101313.31;5054100;28;20573;-70
2023/01/04 06:24:07;;;;;;;7.40;1.97;;;;;;;5.94;96.92;101301.84;5053859;28;21071;-71
2023/01/04 06:26:34;;;;;;;6.77;2.67;;;;;;;5.95;96.64;101293.50;5053967;28;20438;-71
2023/01/04 06:29:00;;;;;;;6.93;2.13;;;;;;;5.95;97.09;101288.13;5053807;28;20545;-71
2023/01/04 06:31:27;;;;;;;9.30;2.63;;;;;;;5.95;97.38;101290.00;5054081;28;20456;-71
2023/01/04 06:33:54;;;;;;;6.07;2.30;;;;;;;5.99;96.92;101275.81;5054022;28;20501;-71
2023/01/04 06:36:22;;;;;;;6.60;2.57;;;;;;;6.02;96.63;101278.00;5053515;28;20471;-71
2023/01/04 06:38:49;;;;;;;7.37;2.23;;;;;;;6.07;96.63;101277.25;5054150;28;20456;-72
2023/01/04 06:41:15;;;;;;;7.00;2.53;;;;;;;6.16;96.19;101269.53;5053968;28;20525;-72
2023/01/04 06:43:42;;;;;;;5.90;2.40;;;;;;;6.18;95.93;101268.19;5053661;28;20565;-72
2023/01/04 06:46:09;;;;;;;10.23;1.93;;;;;;;6.21;95.85;101248.84;5053727;28;20533;-70
2023/01/04 06:48:35;;;;;;;5.63;1.90;;;;;;;6.22;96.04;101253.16;5054104;28;20442;-69
2023/01/04 06:51:02;;;;;;;4.70;1.50;;;;;;;6.31;95.52;101258.88;5053377;28;20891;-70
2023/01/04 06:53:30;;;;;;;5.83;2.20;;;;;;;6.37;94.90;101254.34;5053595;28;20481;-70
2023/01/04 06:55:57;;;;;;;5.70;2.00;;;;;;;6.45;94.59;101249.31;5053344;28;20537;-71
2023/01/04 06:58:24;;;;;;;5.53;1.70;;;;;;;6.46;94.92;101236.66;5053759;28;20525;-70
2023/01/04 07:00:51;;;;;;;6.47;1.87;;;;;;;6.51;95.44;101237.53;5053614;28;20448;-71
2023/01/04 07:03:17;;;;;;;10.83;2.30;;;;;;;6.53;96.05;101226.50;5053409;28;20569;-67
2023/01/04 07:05:45;;;;;;;6.20;2.00;;;;;;;6.51;96.52;101223.28;5053083;28;20470;-66
2023/01/04 07:08:12;;;;;;;4.60;1.53;;;;;;;6.53;96.62;101215.75;5053129;28;20535;-66
2023/01/04 07:10:41;;;;;;;12.97;2.27;;;;;;;6.58;97.27;101215.78;5053089;28;20481;-65
2023/01/04 07:13:08;;;;;;;5.47;1.63;;;;;;;6.61;97.34;101207.19;5053366;28;20440;-69
2023/01/04 07:15:35;;;;;;;5.10;1.70;;;;;;;6.61;98.09;101209.88;5053109;28;20571;-69
2023/01/04 07:18:02;;;;;;;4.80;1.23;;;;;;;6.60;98.37;101202.06;5052611;28;20964;-70
2023/01/04 07:20:29;;;;;;;5.77;1.63;;;;;;;6.55;100.00;101197.44;5052883;28;20478;-65
2023/01/04 07:22:55;;;;;;;5.23;1.60;;;;;;;6.58;100.00;101196.94;5053041;28;20569;-65
2023/01/04 07:25:22;;;;;;;4.80;1.60;;;;;;;6.60;100.00;101181.34;5053274;28;20931;-69
2023/01/04 07:27:53;;;;;;;5.60;1.50;;;;;;;6.58;100.00;101178.09;5053150;28;20537;-67
2023/01/04 07:30:20;;;;;;;4.83;1.50;;;;;;;6.54;100.00;101174.31;5053035;28;20462;-66
2023/01/04 07:32:47;;;;;;;4.60;1.07;;;;;;;6.55;100.00;101170.53;5053276;28;20789;-66
2023/01/04 07:35:13;;;;;;;10.33;1.50;;;;;;;6.54;100.00;101171.63;5052734;28;21014;-67
2023/01/04 07:37:40;;;;;;;4.90;1.20;;;;;;;6.50;100.00;101165.94;5052631;28;20442;-67
2023/01/04 07:40:07;;;;;;;4.30;1.10;;;;;;;6.48;100.00;101161.91;5053102;28;20529;-67
2023/01/04 07:42:34;;;;;;;9.10;1.40;;;;;;;6.46;100.00;101154.09;5052758;28;20911;-67
2023/01/04 07:45:02;;;;;;;4.73;1.57;;;;;;;6.51;100.00;101142.53;5052802;28;20492;-67
2023/01/04 07:47:29;;;;;;;4.80;1.23;;;;;;;6.51;100.00;101147.94;5052893;28;20443;-66
2023/01/04 07:49:55;;;;;;;4.37;1.10;;;;;;;6.53;100.00;101133.13;5053057;28;20441;-67
2023/01/04 07:52:22;;;;;;;5.10;1.33;;;;;;;6.51;100.00;101127.22;5052948;28;20442;-67
2023/01/04 07:54:48;;;;;;;4.73;1.10;;;;;;;6.50;100.00;101124.75;5052537;28;20520;-69
2023/01/04 07:57:15;;;;;;;4.23;0.97;;;;;;;6.49;100.00;101109.69;5052543;28;20473;-67
2023/01/04 07:59:42;;;;;;;8.63;1.57;;;;;;;6.48;100.00;101110.78;5052782;28;20541;-66
2023/01/04 08:02:11;;;;;;;7.37;1.20;;;;;;;6.50;100.00;101100.53;5052733;28;20565;-65
2023/01/04 08:04:38;;;;;;;6.97;1.10;;;;;;;6.50;100.00;101089.78;5052387;28;20979;-66
2023/01/04 08:07:05;;;;;;;4.20;0.90;;;;;;;6.50;100.00;101095.16;5052855;28;20785;-66
2023/01/04 08:09:31;;;;;;;4.83;1.10;;;;;;;6.50;100.00;101081.69;5052833;28;20448;-65
2023/01/04 08:11:58;;;;;;;8.47;1.43;;;;;;;6.49;100.00;101077.41;5052737;28;20456;-65
2023/01/04 08:14:25;;;;;;;13.17;1.17;;;;;;;6.49;100.00;101072.81;5052671;28;20458;-66
2023/01/04 08:16:51;;;;;;;4.40;1.00;;;;;;;6.45;100.00;101068.22;5052675;28;20639;-66
2023/01/04 08:19:21;;;;;;;7.90;1.20;;;;;;;6.48;100.00;101083.84;5052340;28;20438;-65
2023/01/04 08:21:48;;;;;;;4.33;1.00;;;;;;;6.52;100.00;101076.88;5052810;28;20470;-66
2023/01/04 08:24:18;;;;;;;5.20;1.13;;;;;;;6.56;100.00;101076.09;5052346;28;20498;-70
2023/01/04 08:26:45;;;;;;;4.50;1.03;;;;;;;6.60;100.00;101064.78;5052665;28;20521;-69
2023/01/04 08:29:12;;;;;;;4.70;1.17;;;;;;;6.64;100.00;101058.66;5052771;28;20448;-69
2023/01/04 08:31:40;;;;;;;4.80;1.30;;;;;;;6.69;100.00;101063.25;5056201;28;20529;-70
2023/01/04 08:34:08;;;;;;;5.00;1.03;;;;;;;6.72;100.00;101060.81;5056134;28;20545;-69
2023/01/04 08:36:45;;;;;;;7.40;1.70;;;;;;;6.75;100.00;101060.28;5056220;28;20474;-70
2023/01/04 08:39:12;;;;;;;7.70;1.90;;;;;;;6.79;100.00;101053.31;5056000;28;20899;-70
2023/01/04 08:41:50;;;;;;;4.77;1.03;;;;;;;6.73;100.00;101051.69;5056241;28;20481;-70
2023/01/04 08:44:17;;;;;;;6.10;1.47;;;;;;;6.74;100.00;101055.19;5056171;28;20485;-69
2023/01/04 08:46:44;;;;;;;4.90;1.10;;;;;;;6.77;100.00;101050.09;5056014;28;20468;-70
2023/01/04 08:49:11;;;;;;;4.90;1.20;;;;;;;6.78;100.00;101057.09;5056105;28;20474;-70
2023/01/04 08:51:39;;;;;;;5.10;1.30;;;;;;;6.79;100.00;101053.31;5055799;28;20533;-70
2023/01/04 08:54:06;;;;;;;4.70;1.23;;;;;;;6.78;100.00;101045.50;5055952;28;20458;-70
2023/01/04 08:56:32;;;;;;;4.70;1.30;;;;;;;6.77;100.00;101046.56;5056134;28;20456;-69
2023/01/04 08:59:00;;;;;;;5.80;1.47;;;;;;;6.79;100.00;101047.91;5079455;22;20552;-71
2023/01/04 09:01:26;;;;;;;8.43;1.80;;;;;;;6.82;100.00;101039.31;5055351;28;20434;-67
2023/01/04 09:03:54;;;;;;;8.10;1.50;;;;;;;6.88;100.00;101039.34;5055249;28;20474;-72
2023/01/04 09:06:21;;;;;;;5.47;1.33;;;;;;;6.90;100.00;101039.88;5055274;28;20452;-71
2023/01/04 09:08:49;;;;;;;4.80;1.30;;;;;;;6.94;100.00;101038.25;5055530;28;20459;-70
2023/01/04 09:11:18;;;;;;;5.50;1.40;;;;;;;6.98;100.00;101025.88;5055507;28;20552;-71
2023/01/04 09:13:45;;;;;;;6.03;1.90;;;;;;;6.98;100.00;101020.50;5055696;28;20444;-71
2023/01/04 09:16:14;;;;;;;5.63;1.63;;;;;;;6.95;100.00;101016.47;5055384;28;20438;-71
2023/01/04 09:18:41;;;;;;;5.60;1.40;;;;;;;6.95;100.00;101016.47;5054963;28;20887;-71
2023/01/04 09:21:08;;;;;;;5.57;1.73;;;;;;;7.03;100.00;101015.13;5055282;28;20488;-72
2023/01/04 09:23:35;;;;;;;16.43;2.67;;;;;;;7.06;100.00;101009.22;5055236;28;20914;-71
2023/01/04 09:26:06;;;;;;;6.30;2.37;;;;;;;7.04;100.00;101006.00;5055255;28;20453;-70
2023/01/04 09:28:33;;;;;;;5.70;1.83;;;;;;;7.05;100.00;100994.13;5055145;28;20463;-70
2023/01/04 09:31:04;;;;;;;7.50;2.40;;;;;;;7.09;100.00;100987.13;5055110;28;20485;-71
2023/01/04 09:33:31;;;;;;;6.27;1.77;;;;;;;7.08;100.00;100985.50;5055127;28;20429;-71
2023/01/04 09:36:01;;;;;;;10.53;1.60;;;;;;;7.08;100.00;100988.19;5055666;28;20438;-71
2023/01/04 09:38:28;;;;;;;8.53;2.10;;;;;;;7.12;100.00;100975.00;5055594;28;20438;-70
2023/01/04 09:41:03;;;;;;;5.23;1.40;;;;;;;7.12;100.00;100980.41;5058248;28;20521;-71
2023/01/04 09:43:42;;;;;;;7.97;1.70;;;;;;;7.15;100.00;100967.19;5054763;28;20930;-70
2023/01/04 09:46:13;;;;;;;5.63;1.83;;;;;;;7.17;100.00;100965.06;5054897;28;20458;-71
2023/01/04 09:48:42;;;;;;;8.10;2.00;;;;;;;7.16;100.00;100955.34;5054344;28;20468;-70
2023/01/04 09:51:16;;;;;;;6.27;1.70;;;;;;;7.16;100.00;100955.34;5054350;28;20489;-70
2023/01/04 09:53:46;;;;;;;7.60;2.90;;;;;;;7.19;100.00;100951.31;5054823;28;20422;-70
2023/01/04 09:56:19;;;;;;;6.43;2.00;;;;;;;7.21;100.00;100944.56;5054884;28;20438;-71
2023/01/04 09:58:47;;;;;;;7.57;2.27;;;;;;;7.20;100.00;100951.03;5054353;28;20477;-70
2023/01/04 10:01:18;;;;;;;7.73;2.23;;;;;;;7.24;100.00;100935.94;5054263;28;20440;-70
2023/01/04 10:03:53;;;;;;;8.10;1.90;;;;;;;7.20;100.00;100924.09;5054484;28;20562;-70
2023/01/04 10:06:19;;;;;;;5.70;1.70;;;;;;;7.19;100.00;100917.09;5054479;28;20796;-71
2023/01/04 10:08:46;;;;;;;6.20;1.67;;;;;;;7.24;100.00;100918.97;5054049;28;20850;-70
2023/01/04 10:11:32;;;;;;;7.97;2.10;;;;;;;7.26;100.00;100908.72;5054304;28;20445;-70
2023/01/04 10:14:21;;;;;;;5.50;1.70;;;;;;;7.26;100.00;100892.56;5054013;28;20436;-70
2023/01/04 10:17:04;;;;;;;6.13;1.70;;;;;;;7.31;100.00;100890.69;5054258;28;20433;-70
2023/01/04 10:19:44;;;;;;;8.03;2.13;;;;;;;7.34;100.00;100892.03;5054133;28;20541;-69
2023/01/04 10:22:18;;;;;;;5.57;1.53;;;;;;;7.30;100.00;100878.31;5054126;28;20505;-70
2023/01/04 10:24:55;;;;;;;5.93;2.10;;;;;;;7.35;100.00;100882.88;5054293;28;20466;-70
2023/01/04 10:27:31;;;;;;;7.77;2.20;;;;;;;7.37;100.00;100869.94;5054070;28;20509;-69
2023/01/04 10:30:16;;;;;;;5.70;1.67;;;;;;;7.37;100.00;100869.13;5054210;28;20500;-69
2023/01/04 10:32:44;;;;;;;5.60;1.37;;;;;;;7.36;100.00;100856.75;5053559;28;20454;-70
2023/01/04 10:35:20;;;;;;;5.40;1.60;;;;;;;7.41;100.00;100854.84;5053906;28;20443;-71
2023/01/04 10:37:49;;;;;;;10.77;1.80;;;;;;;7.43;100.00;100863.44;5053840;28;20460;-70
2023/01/04 10:40:17;;;;;;;6.70;2.10;;;;;;;7.46;100.00;100843.22;5053503;28;20465;-70
2023/01/04 10:42:50;;;;;;;10.57;2.37;;;;;;;7.44;100.00;100848.91;5053440;28;20442;-71
2023/01/04 10:45:22;;;;;;;11.63;3.57;;;;;;;7.49;100.00;100823.81;5054016;28;20462;-70
2023/01/04 10:47:58;;;;;;;5.87;1.90;;;;;;;7.49;100.00;100821.13;5053707;28;20430;-70
2023/01/04 10:50:29;;;;;;;6.50;2.00;;;;;;;7.53;100.00;100830.28;5053588;28;20541;-69
2023/01/04 10:53:02;;;;;;;7.90;2.30;;;;;;;7.53;100.00;100830.28;5053029;28;20446;-70
2023/01/04 10:55:36;;;;;;;9.00;3.17;;;;;;;7.55;100.00;100820.03;5053290;28;20953;-70
2023/01/04 10:58:09;;;;;;;5.40;1.70;;;;;;;7.55;100.00;100820.03;5053571;28;20430;-70
2023/01/04 11:00:41;;;;;;;15.30;3.27;;;;;;;7.57;100.00;100807.91;5053381;28;20501;-70
2023/01/04 11:03:16;;;;;;;9.03;2.07;;;;;;;7.62;100.00;100806.25;5053149;28;20562;-70
2023/01/04 11:05:48;;;;;;;6.97;2.40;;;;;;;7.64;100.00;100804.88;5053475;28;20446;-70
2023/01/04 11:08:20;;;;;;;8.00;2.20;;;;;;;7.65;100.00;100787.63;5053293;28;20439;-69
2023/01/04 11:10:52;;;;;;;7.93;2.00;;;;;;;7.69;100.00;100782.50;5053373;28;20925;-70
2023/01/04 11:13:20;;;;;;;10.70;3.10;;;;;;;7.75;100.00;100790.28;5053555;28;20477;-72
2023/01/04 11:15:48;;;;;;;6.30;2.30;;;;;;;7.79;100.00;100791.38;5053610;28;20856;-69
2023/01/04 11:18:16;;;;;;;12.07;2.97;;;;;;;7.81;100.00;100778.41;5053387;28;20541;-70
2023/01/04 11:20:43;;;;;;;10.57;3.60;;;;;;;7.85;100.00;100773.25;5053479;28;20616;-70
2023/01/04 11:23:13;;;;;;;9.57;3.60;;;;;;;7.82;100.00;100774.59;5053046;28;20473;-70
2023/01/04 11:25:46;;;;;;;7.77;2.07;;;;;;;7.84;100.00;100772.44;5053255;28;20509;-70
2023/01/04 11:28:18;;;;;;;5.90;1.63;;;;;;;7.92;100.00;100767.53;5053227;28;20430;-69
2023/01/04 11:30:56;;;;;;;12.20;2.57;;;;;;;7.91;100.00;100763.25;5053134;28;20975;-69
2023/01/04 11:33:24;;;;;;;6.03;2.00;;;;;;;7.91;100.00;100766.75;5053194;28;20422;-70
2023/01/04 11:35:53;;;;;;;6.10;2.00;;;;;;;7.92;100.00;100756.75;5053330;28;20457;-70
2023/01/04 11:38:21;;;;;;;6.57;1.80;;;;;;;7.94;100.00;100755.41;5052899;28;21001;-72
2023/01/04 11:40:57;;;;;;;13.63;2.60;;;;;;;8.00;100.00;100745.38;5053251;28;20450;-70
2023/01/04 11:43:26;;;;;;;7.87;2.67;;;;;;;7.99;100.00;100741.88;5053007;28;20517;-70
2023/01/04 11:45:57;;;;;;;12.20;2.93;;;;;;;8.00;100.00;100745.38;5053038;28;20434;-70
2023/01/04 11:48:38;;;;;;;6.83;2.03;;;;;;;7.98;100.00;100731.38;5053356;28;20445;-70
2023/01/04 11:51:06;;;;;;;13.37;2.50;;;;;;;8.01;100.00;100726.25;5052622;28;20431;-69
2023/01/04 11:53:35;;;;;;;8.20;2.53;;;;;;;8.05;100.00;100715.66;5052778;28;20526;-70
2023/01/04 11:56:10;;;;;;;9.67;2.33;;;;;;;8.07;100.00;100718.91;5052845;28;20449;-70
2023/01/04 11:58:37;;;;;;;7.63;2.53;;;;;;;8.06;100.00;100706.50;5052362;28;21044;-69
2023/01/04 12:01:05;;;;;;;6.37;1.83;;;;;;;8.13;100.00;100701.59;5052865;28;20539;-70
2023/01/04 12:03:36;;;;;;;12.70;3.20;;;;;;;8.14;100.00;100703.19;5053408;28;20508;-70
2023/01/04 12:06:04;;;;;;;5.93;1.77;;;;;;;8.13;100.00;100693.50;5056881;28;20456;-70
2023/01/04 12:08:33;;;;;;;5.63;1.87;;;;;;;8.17;100.00;100688.34;5056471;28;20446;-70
2023/01/04 12:11:02;;;;;;;6.13;1.80;;;;;;;8.21;100.00;100700.19;5056520;28;20441;-70
2023/01/04 12:13:30;;;;;;;8.93;1.93;;;;;;;8.19;100.00;100697.78;5056237;28;20943;-70
2023/01/04 12:16:08;;;;;;;6.13;2.30;;;;;;;8.19;100.00;100688.84;5056585;28;20438;-71
2023/01/04 12:18:37;;;;;;;7.23;2.60;;;;;;;8.21;100.00;100679.41;5056165;28;20446;-70
2023/01/04 12:21:04;;;;;;;23.30;3.73;;;;;;;8.26;100.00;100682.06;5056151;28;20470;-70
2023/01/04 12:23:33;;;;;;;9.53;2.60;;;;;;;8.27;100.00;100672.06;5056311;28;20865;-70
2023/01/04 12:26:01;;;;;;;8.63;2.60;;;;;;;8.30;100.00;100669.59;5056269;28;20442;-71
2023/01/04 12:28:32;;;;;;;22.30;4.30;;;;;;;8.29;100.00;100675.31;5056467;28;20536;-70